sensor_id;sensor_type;location;lat;lon;timestamp;pressure;altitude;pressure_sealevel;temperature;humidity
33795;BME280;51430;52.242;21.118;2022-10-20T00:01:25;101386.77;;;5.51;97.38
33795;BME280;51430;52.242;21.118;2022-10-20T00:03:53;101388.98;;;5.51;97.38
33795;BME280;51430;52.242;21.118;2022-10-20T00:06:39;101385.29;;;5.48;97.34
33795;BME280;51430;52.242;21.118;2022-10-20T00:09:05;101386.64;;;5.50;97.52
33795;BME280;51430;52.242;21.118;2022-10-20T00:11:32;101390.98;;;5.49;97.33
33795;BME280;51430;52.242;21.118;2022-10-20T00:14:00;101391.32;;;5.49;97.38
33795;BME280;51430;52.242;21.118;2022-10-20T00:16:29;101391.57;;;5.47;97.34
33795;BME280;51430;52.242;21.118;2022-10-20T00:18:56;101393.63;;;5.43;97.15
33795;BME280;51430;52.242;21.118;2022-10-20T00:21:25;101392.19;;;5.40;97.23
33795;BME280;51430;52.242;21.118;2022-10-20T00:23:52;101396.06;;;5.38;96.99
33795;BME280;51430;52.242;21.118;2022-10-20T00:26:22;101391.54;;;5.34;96.92
33795;BME280;51430;52.242;21.118;2022-10-20T00:28:49;101396.50;;;5.31;97.10
33795;BME280;51430;52.242;21.118;2022-10-20T00:31:18;101393.13;;;5.29;97.19
33795;BME280;51430;52.242;21.118;2022-10-20T00:33:46;101396.41;;;5.24;97.12
33795;BME280;51430;52.242;21.118;2022-10-20T00:36:15;101393.97;;;5.20;97.25
33795;BME280;51430;52.242;21.118;2022-10-20T00:38:43;101390.36;;;5.20;97.33
33795;BME280;51430;52.242;21.118;2022-10-20T00:41:19;101392.20;;;5.21;97.57
33795;BME280;51430;52.242;21.118;2022-10-20T00:43:49;101397.08;;;5.21;97.82
33795;BME280;51430;52.242;21.118;2022-10-20T00:46:19;101394.02;;;5.18;97.72
33795;BME280;51430;52.242;21.118;2022-10-20T00:48:54;101394.27;;;5.17;97.65
33795;BME280;51430;52.242;21.118;2022-10-20T00:51:26;101393.71;;;5.14;97.77
33795;BME280;51430;52.242;21.118;2022-10-20T00:54:02;101393.13;;;5.10;97.76
33795;BME280;51430;52.242;21.118;2022-10-20T00:56:39;101391.59;;;5.05;97.78
33795;BME280;51430;52.242;21.118;2022-10-20T00:59:08;101391.88;;;5.02;97.73
33795;BME280;51430;52.242;21.118;2022-10-20T01:01:38;101387.14;;;5.00;97.77
33795;BME280;51430;52.242;21.118;2022-10-20T01:04:06;101387.12;;;5.00;97.94
33795;BME280;51430;52.242;21.118;2022-10-20T01:06:32;101385.31;;;4.98;97.80
33795;BME280;51430;52.242;21.118;2022-10-20T01:08:59;101386.63;;;4.95;97.68
33795;BME280;51430;52.242;21.118;2022-10-20T01:11:48;101389.70;;;4.91;97.84
33795;BME280;51430;52.242;21.118;2022-10-20T01:17:45;101387.39;;;4.78;98.37
33795;BME280;51430;52.242;21.118;2022-10-20T01:28:57;101392.00;;;4.70;98.93
33795;BME280;51430;52.242;21.118;2022-10-20T01:31:30;101391.41;;;4.72;99.28
33795;BME280;51430;52.242;21.118;2022-10-20T01:36:58;101390.96;;;4.75;99.52
33795;BME280;51430;52.242;21.118;2022-10-20T01:39:36;101390.94;;;4.76;99.72
33795;BME280;51430;52.242;21.118;2022-10-20T01:42:10;101390.49;;;4.73;99.67
33795;BME280;51430;52.242;21.118;2022-10-20T01:44:38;101389.05;;;4.70;99.59
33795;BME280;51430;52.242;21.118;2022-10-20T01:47:08;101390.38;;;4.67;99.26
33795;BME280;51430;52.242;21.118;2022-10-20T01:49:35;101394.41;;;4.65;99.23
33795;BME280;51430;52.242;21.118;2022-10-20T01:52:02;101395.86;;;4.64;99.12
33795;BME280;51430;52.242;21.118;2022-10-20T01:54:29;101392.66;;;4.61;99.05
33795;BME280;51430;52.242;21.118;2022-10-20T02:05:09;101384.31;;;4.53;99.15
33795;BME280;51430;52.242;21.118;2022-10-20T02:07:38;101384.91;;;4.46;99.14
33795;BME280;51430;52.242;21.118;2022-10-20T02:10:12;101388.77;;;4.44;99.02
33795;BME280;51430;52.242;21.118;2022-10-20T02:12:42;101386.07;;;4.42;99.39
33795;BME280;51430;52.242;21.118;2022-10-20T02:15:16;101383.79;;;4.43;99.47
33795;BME280;51430;52.242;21.118;2022-10-20T02:17:45;101384.44;;;4.45;99.53
33795;BME280;51430;52.242;21.118;2022-10-20T02:20:15;101383.94;;;4.44;99.58
33795;BME280;51430;52.242;21.118;2022-10-20T02:22:43;101383.67;;;4.42;99.73
33795;BME280;51430;52.242;21.118;2022-10-20T02:25:11;101380.40;;;4.42;99.52
33795;BME280;51430;52.242;21.118;2022-10-20T02:27:41;101381.63;;;4.41;99.71
33795;BME280;51430;52.242;21.118;2022-10-20T02:30:18;101381.00;;;4.39;99.57
33795;BME280;51430;52.242;21.118;2022-10-20T02:32:48;101381.50;;;4.34;99.57
33795;BME280;51430;52.242;21.118;2022-10-20T02:35:26;101378.65;;;4.32;99.42
33795;BME280;51430;52.242;21.118;2022-10-20T02:37:55;101378.94;;;4.29;99.58
33795;BME280;51430;52.242;21.118;2022-10-20T02:40:22;101382.89;;;4.29;99.81
33795;BME280;51430;52.242;21.118;2022-10-20T02:42:57;101379.85;;;4.27;99.87
33795;BME280;51430;52.242;21.118;2022-10-20T02:45:24;101383.49;;;4.27;99.66
33795;BME280;51430;52.242;21.118;2022-10-20T02:47:50;101387.84;;;4.26;99.69
33795;BME280;51430;52.242;21.118;2022-10-20T02:50:17;101382.30;;;4.21;99.43
33795;BME280;51430;52.242;21.118;2022-10-20T02:52:43;101386.37;;;4.18;99.51
33795;BME280;51430;52.242;21.118;2022-10-20T02:55:10;101386.88;;;4.18;99.73
33795;BME280;51430;52.242;21.118;2022-10-20T02:57:37;101387.10;;;4.17;99.87
33795;BME280;51430;52.242;21.118;2022-10-20T03:00:06;101388.71;;;4.15;99.80
33795;BME280;51430;52.242;21.118;2022-10-20T03:02:33;101388.56;;;4.14;99.76
33795;BME280;51430;52.242;21.118;2022-10-20T03:04:59;101385.52;;;4.12;99.66
33795;BME280;51430;52.242;21.118;2022-10-20T03:07:26;101385.95;;;4.10;99.67
33795;BME280;51430;52.242;21.118;2022-10-20T03:09:53;101387.04;;;4.08;99.51
33795;BME280;51430;52.242;21.118;2022-10-20T03:12:19;101387.45;;;4.06;99.43
33795;BME280;51430;52.242;21.118;2022-10-20T03:14:46;101385.11;;;4.03;99.58
33795;BME280;51430;52.242;21.118;2022-10-20T03:17:12;101387.15;;;3.99;99.50
33795;BME280;51430;52.242;21.118;2022-10-20T03:19:39;101386.32;;;3.98;99.83
33795;BME280;51430;52.242;21.118;2022-10-20T03:22:07;101386.41;;;3.95;99.82
33795;BME280;51430;52.242;21.118;2022-10-20T03:24:33;101392.66;;;3.94;99.75
33795;BME280;51430;52.242;21.118;2022-10-20T03:27:00;101391.12;;;3.93;99.87
33795;BME280;51430;52.242;21.118;2022-10-20T03:29:27;101394.98;;;3.91;99.88
33795;BME280;51430;52.242;21.118;2022-10-20T03:31:53;101393.71;;;3.88;99.93
33795;BME280;51430;52.242;21.118;2022-10-20T03:34:20;101395.60;;;3.83;99.83
33795;BME280;51430;52.242;21.118;2022-10-20T03:36:47;101396.38;;;3.81;99.77
33795;BME280;51430;52.242;21.118;2022-10-20T03:39:13;101397.95;;;3.79;99.96
33795;BME280;51430;52.242;21.118;2022-10-20T03:41:40;101404.73;;;3.78;99.74
33795;BME280;51430;52.242;21.118;2022-10-20T03:44:09;101409.13;;;3.75;99.85
33795;BME280;51430;52.242;21.118;2022-10-20T03:46:35;101407.72;;;3.71;99.82
33795;BME280;51430;52.242;21.118;2022-10-20T03:49:02;101409.84;;;3.69;99.84
33795;BME280;51430;52.242;21.118;2022-10-20T03:51:29;101406.85;;;3.66;99.77
33795;BME280;51430;52.242;21.118;2022-10-20T03:53:56;101405.77;;;3.61;99.97
33795;BME280;51430;52.242;21.118;2022-10-20T03:56:22;101405.84;;;3.59;99.93
33795;BME280;51430;52.242;21.118;2022-10-20T03:58:49;101411.23;;;3.57;99.55
33795;BME280;51430;52.242;21.118;2022-10-20T04:01:18;101413.23;;;3.54;99.88
33795;BME280;51430;52.242;21.118;2022-10-20T04:03:46;101415.23;;;3.50;99.78
33795;BME280;51430;52.242;21.118;2022-10-20T04:06:13;101421.38;;;3.46;99.65
33795;BME280;51430;52.242;21.118;2022-10-20T04:08:43;101424.08;;;3.43;99.66
33795;BME280;51430;52.242;21.118;2022-10-20T04:11:09;101424.16;;;3.40;99.65
33795;BME280;51430;52.242;21.118;2022-10-20T04:13:36;101428.69;;;3.38;99.85
33795;BME280;51430;52.242;21.118;2022-10-20T04:16:03;101425.77;;;3.38;99.72
33795;BME280;51430;52.242;21.118;2022-10-20T04:18:30;101424.81;;;3.35;99.61
33795;BME280;51430;52.242;21.118;2022-10-20T04:20:57;101422.52;;;3.32;99.92
33795;BME280;51430;52.242;21.118;2022-10-20T04:23:23;101423.21;;;3.31;99.92
33795;BME280;51430;52.242;21.118;2022-10-20T04:25:50;101426.21;;;3.29;99.82
33795;BME280;51430;52.242;21.118;2022-10-20T04:28:18;101425.45;;;3.25;99.80
33795;BME280;51430;52.242;21.118;2022-10-20T04:30:46;101424.88;;;3.21;99.83
33795;BME280;51430;52.242;21.118;2022-10-20T04:33:13;101426.69;;;3.18;99.64
33795;BME280;51430;52.242;21.118;2022-10-20T04:35:40;101426.04;;;3.17;99.68
33795;BME280;51430;52.242;21.118;2022-10-20T04:38:07;101427.96;;;3.16;99.81
33795;BME280;51430;52.242;21.118;2022-10-20T04:40:34;101427.70;;;3.13;99.94
33795;BME280;51430;52.242;21.118;2022-10-20T04:43:00;101424.52;;;3.10;99.85
33795;BME280;51430;52.242;21.118;2022-10-20T04:45:27;101422.04;;;3.06;99.84
33795;BME280;51430;52.242;21.118;2022-10-20T04:47:54;101423.14;;;3.04;99.90
33795;BME280;51430;52.242;21.118;2022-10-20T04:50:21;101428.17;;;3.02;99.86
33795;BME280;51430;52.242;21.118;2022-10-20T04:52:47;101432.99;;;3.02;99.90
33795;BME280;51430;52.242;21.118;2022-10-20T04:55:14;101437.14;;;3.02;99.90
33795;BME280;51430;52.242;21.118;2022-10-20T04:57:40;101436.78;;;3.03;99.96
33795;BME280;51430;52.242;21.118;2022-10-20T05:00:07;101438.02;;;3.02;99.98
33795;BME280;51430;52.242;21.118;2022-10-20T05:02:34;101439.57;;;3.01;99.97
33795;BME280;51430;52.242;21.118;2022-10-20T05:05:01;101437.16;;;3.01;99.94
33795;BME280;51430;52.242;21.118;2022-10-20T05:07:28;101436.02;;;2.99;99.89
33795;BME280;51430;52.242;21.118;2022-10-20T05:09:55;101439.14;;;2.98;99.91
33795;BME280;51430;52.242;21.118;2022-10-20T05:12:22;101442.90;;;2.99;99.95
33795;BME280;51430;52.242;21.118;2022-10-20T05:14:48;101439.10;;;2.99;99.94
33795;BME280;51430;52.242;21.118;2022-10-20T05:17:15;101437.73;;;2.99;99.97
33795;BME280;51430;52.242;21.118;2022-10-20T05:19:41;101437.54;;;3.00;99.93
33795;BME280;51430;52.242;21.118;2022-10-20T05:22:08;101437.67;;;3.02;100.00
33795;BME280;51430;52.242;21.118;2022-10-20T05:24:35;101441.55;;;3.04;100.00
33795;BME280;51430;52.242;21.118;2022-10-20T05:27:01;101446.25;;;3.09;100.00
33795;BME280;51430;52.242;21.118;2022-10-20T05:29:28;101447.36;;;3.12;100.00
33795;BME280;51430;52.242;21.118;2022-10-20T05:31:55;101444.29;;;3.17;100.00
33795;BME280;51430;52.242;21.118;2022-10-20T05:34:22;101446.14;;;3.19;100.00
33795;BME280;51430;52.242;21.118;2022-10-20T05:36:51;101451.84;;;3.24;100.00
33795;BME280;51430;52.242;21.118;2022-10-20T05:39:20;101454.98;;;3.29;100.00
33795;BME280;51430;52.242;21.118;2022-10-20T05:41:47;101459.87;;;3.38;100.00
33795;BME280;51430;52.242;21.118;2022-10-20T05:44:13;101462.77;;;3.51;100.00
33795;BME280;51430;52.242;21.118;2022-10-20T05:46:40;101465.79;;;3.60;100.00
33795;BME280;51430;52.242;21.118;2022-10-20T05:49:15;101471.36;;;3.70;100.00
33795;BME280;51430;52.242;21.118;2022-10-20T05:51:44;101473.88;;;3.78;100.00
33795;BME280;51430;52.242;21.118;2022-10-20T05:54:12;101478.48;;;3.91;99.99
33795;BME280;51430;52.242;21.118;2022-10-20T05:56:39;101481.05;;;4.03;100.00
33795;BME280;51430;52.242;21.118;2022-10-20T05:59:06;101481.64;;;4.12;99.97
33795;BME280;51430;52.242;21.118;2022-10-20T06:01:34;101484.98;;;4.21;99.89
33795;BME280;51430;52.242;21.118;2022-10-20T06:04:15;101486.04;;;4.31;99.75
33795;BME280;51430;52.242;21.118;2022-10-20T06:06:42;101489.92;;;4.44;99.87
33795;BME280;51430;52.242;21.118;2022-10-20T06:09:10;101486.81;;;4.55;99.74
33795;BME280;51430;52.242;21.118;2022-10-20T06:11:37;101489.18;;;4.66;99.63
33795;BME280;51430;52.242;21.118;2022-10-20T06:14:07;101493.61;;;4.79;99.71
33795;BME280;51430;52.242;21.118;2022-10-20T06:16:34;101498.64;;;4.93;99.41
33795;BME280;51430;52.242;21.118;2022-10-20T06:19:01;101496.91;;;5.08;99.30
33795;BME280;51430;52.242;21.118;2022-10-20T06:21:31;101499.52;;;5.22;98.88
33795;BME280;51430;52.242;21.118;2022-10-20T06:23:59;101506.08;;;5.32;98.65
33795;BME280;51430;52.242;21.118;2022-10-20T06:26:28;101506.88;;;5.43;98.16
33795;BME280;51430;52.242;21.118;2022-10-20T06:28:58;101505.44;;;5.54;98.02
33795;BME280;51430;52.242;21.118;2022-10-20T06:31:35;101501.92;;;5.65;97.79
33795;BME280;51430;52.242;21.118;2022-10-20T06:34:09;101510.77;;;5.78;97.53
33795;BME280;51430;52.242;21.118;2022-10-20T06:36:39;101505.13;;;5.90;97.34
33795;BME280;51430;52.242;21.118;2022-10-20T06:39:11;101502.45;;;6.07;97.13
33795;BME280;51430;52.242;21.118;2022-10-20T06:41:41;101509.95;;;6.22;96.74
33795;BME280;51430;52.242;21.118;2022-10-20T06:44:07;101510.86;;;6.39;96.42
33795;BME280;51430;52.242;21.118;2022-10-20T06:46:35;101512.41;;;6.60;95.90
33795;BME280;51430;52.242;21.118;2022-10-20T06:49:04;101511.14;;;6.78;95.47
33795;BME280;51430;52.242;21.118;2022-10-20T06:51:32;101514.29;;;6.98;95.02
33795;BME280;51430;52.242;21.118;2022-10-20T06:54:03;101519.33;;;7.17;94.43
33795;BME280;51430;52.242;21.118;2022-10-20T06:56:33;101521.67;;;7.39;93.67
33795;BME280;51430;52.242;21.118;2022-10-20T06:59:00;101528.21;;;7.56;92.55
33795;BME280;51430;52.242;21.118;2022-10-20T07:01:32;101532.40;;;7.74;91.65
33795;BME280;51430;52.242;21.118;2022-10-20T07:04:05;101534.71;;;7.95;90.51
33795;BME280;51430;52.242;21.118;2022-10-20T07:06:35;101536.22;;;8.12;89.75
33795;BME280;51430;52.242;21.118;2022-10-20T07:09:04;101537.61;;;8.38;88.92
33795;BME280;51430;52.242;21.118;2022-10-20T07:11:34;101539.10;;;8.61;87.64
33795;BME280;51430;52.242;21.118;2022-10-20T07:14:03;101541.74;;;8.85;86.11
33795;BME280;51430;52.242;21.118;2022-10-20T07:16:32;101543.92;;;9.14;84.59
33795;BME280;51430;52.242;21.118;2022-10-20T07:19:00;101549.20;;;9.36;83.36
33795;BME280;51430;52.242;21.118;2022-10-20T07:21:27;101550.16;;;9.61;83.33
33795;BME280;51430;52.242;21.118;2022-10-20T07:24:05;101549.44;;;9.94;82.17
33795;BME280;51430;52.242;21.118;2022-10-20T07:26:34;101547.35;;;10.17;80.57
33795;BME280;51430;52.242;21.118;2022-10-20T07:29:02;101546.32;;;10.32;79.29
33795;BME280;51430;52.242;21.118;2022-10-20T07:31:35;101550.48;;;10.68;78.28
33795;BME280;51430;52.242;21.118;2022-10-20T07:34:05;101555.02;;;11.13;77.29
33795;BME280;51430;52.242;21.118;2022-10-20T07:36:51;101555.88;;;11.60;75.08
33795;BME280;51430;52.242;21.118;2022-10-20T07:39:18;101560.77;;;12.11;73.05
33795;BME280;51430;52.242;21.118;2022-10-20T07:41:45;101562.34;;;12.46;71.12
33795;BME280;51430;52.242;21.118;2022-10-20T07:44:14;101562.02;;;12.70;70.06
33795;BME280;51430;52.242;21.118;2022-10-20T07:46:41;101559.20;;;12.96;69.74
33795;BME280;51430;52.242;21.118;2022-10-20T07:49:09;101562.00;;;13.33;68.36
33795;BME280;51430;52.242;21.118;2022-10-20T07:51:56;101562.70;;;13.61;67.43
33795;BME280;51430;52.242;21.118;2022-10-20T07:54:23;101569.66;;;14.11;65.96
33795;BME280;51430;52.242;21.118;2022-10-20T07:56:50;101566.30;;;14.55;63.57
33795;BME280;51430;52.242;21.118;2022-10-20T07:59:18;101568.42;;;14.88;62.11
33795;BME280;51430;52.242;21.118;2022-10-20T08:01:45;101570.25;;;15.42;61.39
33795;BME280;51430;52.242;21.118;2022-10-20T08:04:12;101570.92;;;15.29;60.90
33795;BME280;51430;52.242;21.118;2022-10-20T08:06:39;101576.02;;;14.89;61.07
33795;BME280;51430;52.242;21.118;2022-10-20T08:09:06;101576.00;;;14.45;62.08
33795;BME280;51430;52.242;21.118;2022-10-20T08:11:34;101573.16;;;14.13;63.00
33795;BME280;51430;52.242;21.118;2022-10-20T08:14:02;101566.48;;;14.36;62.19
33795;BME280;51430;52.242;21.118;2022-10-20T08:16:29;101567.80;;;14.47;61.43
33795;BME280;51430;52.242;21.118;2022-10-20T08:19:20;101571.21;;;14.74;61.25
33795;BME280;51430;52.242;21.118;2022-10-20T08:22:10;101567.45;;;14.91;61.12
33795;BME280;51430;52.242;21.118;2022-10-20T08:24:38;101568.98;;;14.96;59.57
33795;BME280;51430;52.242;21.118;2022-10-20T08:27:06;101572.29;;;14.92;60.01
33795;BME280;51430;52.242;21.118;2022-10-20T08:29:35;101573.18;;;14.89;59.10
33795;BME280;51430;52.242;21.118;2022-10-20T08:32:02;101571.21;;;15.11;59.51
33795;BME280;51430;52.242;21.118;2022-10-20T08:34:30;101577.31;;;15.37;59.38
33795;BME280;51430;52.242;21.118;2022-10-20T08:36:57;101572.70;;;15.33;58.90
33795;BME280;51430;52.242;21.118;2022-10-20T08:39:24;101575.67;;;15.28;59.37
33795;BME280;51430;52.242;21.118;2022-10-20T08:41:52;101575.20;;;15.14;57.46
33795;BME280;51430;52.242;21.118;2022-10-20T08:44:37;101579.33;;;16.23;57.20
33795;BME280;51430;52.242;21.118;2022-10-20T08:49:44;101580.82;;;16.89;53.89
33795;BME280;51430;52.242;21.118;2022-10-20T08:52:12;101577.20;;;16.58;53.74
33795;BME280;51430;52.242;21.118;2022-10-20T08:54:46;101581.35;;;16.03;54.83
33795;BME280;51430;52.242;21.118;2022-10-20T08:57:23;101579.87;;;15.73;55.84
33795;BME280;51430;52.242;21.118;2022-10-20T08:59:53;101582.29;;;15.34;55.83
33795;BME280;51430;52.242;21.118;2022-10-20T09:02:21;101580.26;;;14.96;56.88
33795;BME280;51430;52.242;21.118;2022-10-20T09:04:52;101580.50;;;14.93;57.46
33795;BME280;51430;52.242;21.118;2022-10-20T09:07:32;101583.09;;;14.68;57.38
33795;BME280;51430;52.242;21.118;2022-10-20T09:10:23;101579.13;;;14.50;58.37
33795;BME280;51430;52.242;21.118;2022-10-20T09:12:53;101578.29;;;14.66;57.78
33795;BME280;51430;52.242;21.118;2022-10-20T09:15:21;101577.42;;;14.85;58.51
33795;BME280;51430;52.242;21.118;2022-10-20T09:17:59;101581.23;;;15.68;56.67
33795;BME280;51430;52.242;21.118;2022-10-20T09:20:53;101582.02;;;16.38;55.36
33795;BME280;51430;52.242;21.118;2022-10-20T09:23:29;101578.33;;;16.93;53.39
33795;BME280;51430;52.242;21.118;2022-10-20T09:26:14;101577.02;;;16.84;51.62
33795;BME280;51430;52.242;21.118;2022-10-20T09:29:32;101571.44;;;15.81;49.48
33795;BME280;51430;52.242;21.118;2022-10-20T09:32:00;101568.35;;;15.02;51.81
33795;BME280;51430;52.242;21.118;2022-10-20T09:34:47;101571.86;;;16.49;50.18
33795;BME280;51430;52.242;21.118;2022-10-20T09:37:17;101576.98;;;18.72;44.48
33795;BME280;51430;52.242;21.118;2022-10-20T09:42:22;101583.76;;;20.61;39.63
33795;BME280;51430;52.242;21.118;2022-10-20T09:47:22;101579.20;;;19.66;41.49
33795;BME280;51430;52.242;21.118;2022-10-20T09:50:04;101577.70;;;19.98;41.26
33795;BME280;51430;52.242;21.118;2022-10-20T09:52:35;101573.44;;;19.91;41.24
33795;BME280;51430;52.242;21.118;2022-10-20T09:55:39;101576.03;;;19.94;41.01
33795;BME280;51430;52.242;21.118;2022-10-20T09:58:25;101574.73;;;20.54;39.79
33795;BME280;51430;52.242;21.118;2022-10-20T10:01:11;101579.09;;;21.70;37.99
33795;BME280;51430;52.242;21.118;2022-10-20T10:04:28;101581.48;;;22.83;35.93
33795;BME280;51430;52.242;21.118;2022-10-20T10:07:00;101577.88;;;24.46;34.33
33795;BME280;51430;52.242;21.118;2022-10-20T10:09:32;101576.31;;;25.25;31.66
33795;BME280;51430;52.242;21.118;2022-10-20T10:14:36;101581.59;;;26.40;30.26
33795;BME280;51430;52.242;21.118;2022-10-20T10:17:05;101578.76;;;26.74;29.64
33795;BME280;51430;52.242;21.118;2022-10-20T10:19:32;101579.02;;;26.85;29.23
33795;BME280;51430;52.242;21.118;2022-10-20T10:22:01;101575.72;;;27.05;28.29
33795;BME280;51430;52.242;21.118;2022-10-20T10:24:45;101578.34;;;26.90;28.92
33795;BME280;51430;52.242;21.118;2022-10-20T10:27:23;101573.82;;;27.13;28.52
33795;BME280;51430;52.242;21.118;2022-10-20T10:29:52;101573.36;;;26.28;28.81
33795;BME280;51430;52.242;21.118;2022-10-20T10:32:25;101571.15;;;26.89;27.76
33795;BME280;51430;52.242;21.118;2022-10-20T10:37:28;101574.41;;;27.58;26.53
33795;BME280;51430;52.242;21.118;2022-10-20T10:40:12;101567.59;;;25.57;29.10
33795;BME280;51430;52.242;21.118;2022-10-20T10:45:51;101553.02;;;22.58;33.56
33795;BME280;51430;52.242;21.118;2022-10-20T10:51:21;101548.85;;;19.77;37.91
33795;BME280;51430;52.242;21.118;2022-10-20T10:56:50;101550.98;;;18.18;41.48
33795;BME280;51430;52.242;21.118;2022-10-20T11:13:30;101523.81;;;15.90;44.58
33795;BME280;51430;52.242;21.118;2022-10-20T11:16:11;101519.66;;;15.71;45.11
33795;BME280;51430;52.242;21.118;2022-10-20T11:24:30;101509.91;;;15.54;45.24
33795;BME280;51430;52.242;21.118;2022-10-20T11:27:17;101502.77;;;15.65;45.12
33795;BME280;51430;52.242;21.118;2022-10-20T11:29:50;101498.59;;;15.84;44.81
33795;BME280;51430;52.242;21.118;2022-10-20T11:32:51;101494.58;;;16.03;44.32
33795;BME280;51430;52.242;21.118;2022-10-20T11:38:30;101484.99;;;16.32;42.94
33795;BME280;51430;52.242;21.118;2022-10-20T11:46:45;101486.10;;;23.58;30.72
33795;BME280;51430;52.242;21.118;2022-10-20T11:49:14;101488.05;;;24.66;30.12
33795;BME280;51430;52.242;21.118;2022-10-20T11:52:06;101492.88;;;25.62;28.73
33795;BME280;51430;52.242;21.118;2022-10-20T11:54:48;101491.36;;;24.49;30.03
33795;BME280;51430;52.242;21.118;2022-10-20T12:03:41;101480.12;;;20.90;35.81
33795;BME280;51430;52.242;21.118;2022-10-20T12:11:29;101469.16;;;18.33;39.80
33795;BME280;51430;52.242;21.118;2022-10-20T12:27:25;101456.12;;;15.76;45.00
33795;BME280;51430;52.242;21.118;2022-10-20T12:33:07;101454.84;;;15.30;46.09
33795;BME280;51430;52.242;21.118;2022-10-20T12:36:13;101450.55;;;15.24;46.62
33795;BME280;51430;52.242;21.118;2022-10-20T12:38:41;101449.65;;;15.22;45.70
33795;BME280;51430;52.242;21.118;2022-10-20T12:41:22;101447.92;;;15.06;45.36
33795;BME280;51430;52.242;21.118;2022-10-20T12:43:52;101446.84;;;14.82;45.60
33795;BME280;51430;52.242;21.118;2022-10-20T12:46:26;101443.09;;;14.89;45.64
33795;BME280;51430;52.242;21.118;2022-10-20T12:48:56;101439.70;;;14.83;45.48
33795;BME280;51430;52.242;21.118;2022-10-20T12:54:46;101437.00;;;14.41;46.42
33795;BME280;51430;52.242;21.118;2022-10-20T12:56:48;101435.23;;;14.29;46.57
33795;BME280;51430;52.242;21.118;2022-10-20T13:12:57;101420.13;;;13.60;47.66
33795;BME280;51430;52.242;21.118;2022-10-20T13:15:46;101418.85;;;13.46;48.90
33795;BME280;51430;52.242;21.118;2022-10-20T13:18:18;101418.39;;;13.45;48.27
33795;BME280;51430;52.242;21.118;2022-10-20T13:21:00;101422.95;;;13.42;47.72
33795;BME280;51430;52.242;21.118;2022-10-20T13:23:42;101425.78;;;13.37;48.28
33795;BME280;51430;52.242;21.118;2022-10-20T13:26:25;101426.65;;;13.30;49.77
33795;BME280;51430;52.242;21.118;2022-10-20T13:28:57;101423.69;;;13.17;50.69
33795;BME280;51430;52.242;21.118;2022-10-20T13:34:14;101424.56;;;13.12;51.47
33795;BME280;51430;52.242;21.118;2022-10-20T13:36:58;101424.12;;;13.09;51.62
33795;BME280;51430;52.242;21.118;2022-10-20T13:47:47;101415.82;;;12.56;54.74
33795;BME280;51430;52.242;21.118;2022-10-20T13:50:30;101412.89;;;12.48;54.97
33795;BME280;51430;52.242;21.118;2022-10-20T13:53:13;101410.59;;;12.48;55.14
33795;BME280;51430;52.242;21.118;2022-10-20T13:56:18;101407.30;;;12.44;55.38
33795;BME280;51430;52.242;21.118;2022-10-20T13:59:02;101407.77;;;12.35;55.85
33795;BME280;51430;52.242;21.118;2022-10-20T14:01:34;101404.11;;;12.19;56.62
33795;BME280;51430;52.242;21.118;2022-10-20T14:04:13;101399.56;;;12.14;57.15
33795;BME280;51430;52.242;21.118;2022-10-20T14:06:46;101400.66;;;11.95;57.06
33795;BME280;51430;52.242;21.118;2022-10-20T14:09:21;101398.27;;;11.75;57.79
33795;BME280;51430;52.242;21.118;2022-10-20T14:11:53;101399.64;;;11.75;58.29
33795;BME280;51430;52.242;21.118;2022-10-20T14:14:25;101395.36;;;11.77;58.60
33795;BME280;51430;52.242;21.118;2022-10-20T14:16:57;101394.14;;;11.82;58.35
33795;BME280;51430;52.242;21.118;2022-10-20T14:19:25;101393.48;;;11.70;58.57
33795;BME280;51430;52.242;21.118;2022-10-20T14:22:22;101392.10;;;11.73;58.51
33795;BME280;51430;52.242;21.118;2022-10-20T14:25:08;101388.21;;;11.49;59.15
33795;BME280;51430;52.242;21.118;2022-10-20T14:27:36;101387.70;;;11.54;59.11
33795;BME280;51430;52.242;21.118;2022-10-20T14:30:05;101385.02;;;11.61;59.23
33795;BME280;51430;52.242;21.118;2022-10-20T14:32:50;101383.49;;;11.57;59.14
33795;BME280;51430;52.242;21.118;2022-10-20T14:38:06;101377.25;;;11.20;59.62
33795;BME280;51430;52.242;21.118;2022-10-20T14:40:48;101379.27;;;11.16;59.96
33795;BME280;51430;52.242;21.118;2022-10-20T14:43:18;101379.55;;;11.20;60.16
33795;BME280;51430;52.242;21.118;2022-10-20T14:45:58;101379.61;;;11.22;60.44
33795;BME280;51430;52.242;21.118;2022-10-20T14:48:51;101374.05;;;11.24;60.77
33795;BME280;51430;52.242;21.118;2022-10-20T14:51:39;101369.42;;;11.23;61.20
33795;BME280;51430;52.242;21.118;2022-10-20T14:59:57;101364.84;;;11.21;61.93
33795;BME280;51430;52.242;21.118;2022-10-20T15:02:32;101360.00;;;11.26;62.12
33795;BME280;51430;52.242;21.118;2022-10-20T15:07:46;101357.51;;;11.32;62.01
33795;BME280;51430;52.242;21.118;2022-10-20T15:10:15;101351.24;;;11.37;63.39
33795;BME280;51430;52.242;21.118;2022-10-20T15:12:45;101347.01;;;11.40;64.58
33795;BME280;51430;52.242;21.118;2022-10-20T15:15:17;101345.83;;;11.40;65.47
33795;BME280;51430;52.242;21.118;2022-10-20T15:23:23;101343.93;;;10.95;65.63
33795;BME280;51430;52.242;21.118;2022-10-20T15:25:59;101342.33;;;10.59;65.83
33795;BME280;51430;52.242;21.118;2022-10-20T15:31:15;101340.90;;;10.56;66.41
33795;BME280;51430;52.242;21.118;2022-10-20T15:33:42;101340.18;;;10.57;66.17
33795;BME280;51430;52.242;21.118;2022-10-20T15:36:14;101341.51;;;10.49;66.20
33795;BME280;51430;52.242;21.118;2022-10-20T15:38:42;101337.55;;;10.43;66.80